Time;durP1;ratioP1;P1;durP2;ratioP2;P2;SDS_P1;SDS_P2;PMS_P1;PMS_P2;Temp;Humidity;BMP_temperature;BMP_pressure;BME280_temperature;BME280_humidity;BME280_pressure;Samples;Min_cycle;Max_cycle;Signal;HPM_P1;HPM_P2
2022/07/04 00:01:54;;;;;;;1.48;0.47;;;13.60;99.30;;;;;;5047494;28;20393;-66
2022/07/04 00:04:21;;;;;;;2.05;0.60;;;13.40;99.40;;;;;;5051260;28;20029;-64
2022/07/04 00:06:48;;;;;;;2.30;0.55;;;13.40;99.60;;;;;;5046313;28;20098;-64
2022/07/04 00:09:15;;;;;;;0.55;0.30;;;13.30;99.80;;;;;;5045637;28;20032;-65
2022/07/04 00:11:43;;;;;;;1.13;0.52;;;13.30;99.90;;;;;;5043654;28;20071;-65
2022/07/04 00:14:10;;;;;;;2.42;0.50;;;13.10;99.90;;;;;;5041903;28;20029;-64
2022/07/04 00:16:37;;;;;;;4.13;0.68;;;13.00;99.90;;;;;;5042056;28;20042;-64
2022/07/04 00:19:04;;;;;;;0.77;0.77;;;12.90;99.90;;;;;;5048179;28;20025;-65
2022/07/04 00:21:32;;;;;;;0.82;0.30;;;12.90;99.90;;;;;;5047668;28;20040;-65
2022/07/04 00:23:59;;;;;;;1.33;0.50;;;12.80;99.90;;;;;;5044236;28;21449;-65
2022/07/04 00:26:27;;;;;;;0.50;0.30;;;12.80;99.90;;;;;;5051337;28;20050;-66
2022/07/04 00:28:55;;;;;;;0.73;0.43;;;12.80;99.90;;;;;;5058233;28;20025;-66
2022/07/04 00:31:22;;;;;;;0.77;0.40;;;12.80;99.90;;;;;;5047836;28;20025;-64
2022/07/04 00:33:50;;;;;;;1.00;0.38;;;12.80;99.90;;;;;;5051774;28;20079;-65
2022/07/04 00:36:17;;;;;;;1.25;0.43;;;12.80;99.90;;;;;;5042196;28;20040;-65
2022/07/04 00:38:44;;;;;;;1.50;0.60;;;12.90;99.90;;;;;;5049661;28;20036;-66
2022/07/04 00:41:11;;;;;;;0.85;0.50;;;12.90;99.90;;;;;;5050076;28;20494;-65
2022/07/04 00:43:39;;;;;;;1.27;0.70;;;13.00;99.90;;;;;;5058023;28;20037;-63
2022/07/04 00:46:06;;;;;;;1.30;0.63;;;12.90;99.90;;;;;;5051644;28;20060;-62
2022/07/04 00:48:33;;;;;;;0.82;0.52;;;13.00;99.90;;;;;;5046622;28;20029;-66
2022/07/04 00:51:01;;;;;;;2.30;0.57;;;12.90;99.90;;;;;;5045452;28;20181;-66
2022/07/04 00:53:28;;;;;;;1.25;0.63;;;12.90;99.90;;;;;;5032906;28;20433;-66
2022/07/04 00:55:56;;;;;;;0.75;0.50;;;12.90;99.90;;;;;;5043310;28;20020;-66
2022/07/04 00:58:24;;;;;;;1.63;0.70;;;12.90;99.90;;;;;;5044936;28;20108;-66
2022/07/04 01:00:51;;;;;;;0.90;0.60;;;12.90;99.90;;;;;;5046663;28;20436;-66
2022/07/04 01:03:19;;;;;;;1.33;0.57;;;12.90;99.90;;;;;;5051938;28;20029;-67
2022/07/04 01:05:46;;;;;;;2.05;0.55;;;12.90;99.90;;;;;;5044395;28;20497;-67
2022/07/04 01:08:14;;;;;;;0.77;0.50;;;12.90;99.90;;;;;;5049034;28;20025;-67
2022/07/04 01:10:41;;;;;;;0.47;0.35;;;13.00;99.90;;;;;;5050002;28;20025;-66
2022/07/04 01:13:08;;;;;;;0.50;0.40;;;13.00;99.90;;;;;;5050455;28;20032;-68
2022/07/04 01:15:35;;;;;;;0.43;0.22;;;13.00;99.90;;;;;;5049060;28;20020;-67
2022/07/04 01:18:03;;;;;;;0.55;0.22;;;13.00;99.90;;;;;;5048084;28;20469;-67
2022/07/04 01:20:36;;;;;;;2.05;0.35;;;13.10;99.90;;;;;;5052845;28;20028;-69
2022/07/04 01:23:03;;;;;;;1.08;0.38;;;13.20;99.90;;;;;;5047785;28;20103;-69
2022/07/04 01:25:32;;;;;;;1.25;0.43;;;13.30;99.90;;;;;;5046879;28;20135;-68
2022/07/04 01:28:03;;;;;;;0.80;0.43;;;13.20;99.90;;;;;;5046805;28;20033;-68
2022/07/04 01:30:31;;;;;;;0.88;0.50;;;13.20;99.90;;;;;;5048183;28;20025;-70
2022/07/04 01:32:58;;;;;;;4.50;0.65;;;13.20;99.90;;;;;;5049627;28;20420;-66
2022/07/04 01:35:26;;;;;;;1.40;0.43;;;13.20;99.90;;;;;;5048577;28;20029;-68
2022/07/04 01:37:53;;;;;;;0.80;0.50;;;13.20;99.90;;;;;;5048064;28;20401;-67
2022/07/04 01:40:20;;;;;;;1.20;0.40;;;13.20;99.90;;;;;;5046737;28;20032;-69
2022/07/04 01:42:48;;;;;;;1.95;1.20;;;13.20;99.90;;;;;;5047751;28;20059;-66
2022/07/04 01:45:15;;;;;;;1.33;0.40;;;13.30;99.90;;;;;;5046410;28;20028;-68
2022/07/04 01:47:42;;;;;;;1.75;0.45;;;13.30;99.90;;;;;;5046712;28;20070;-67
2022/07/04 01:50:14;;;;;;;1.00;0.47;;;13.40;99.90;;;;;;5045293;28;20017;-67
2022/07/04 01:52:42;;;;;;;1.25;0.60;;;13.40;99.90;;;;;;5047284;28;20504;-69
2022/07/04 01:55:11;;;;;;;0.68;0.32;;;13.30;99.90;;;;;;5045246;28;20127;-69
2022/07/04 01:57:39;;;;;;;0.50;0.35;;;13.30;99.90;;;;;;5043758;28;20450;-68
2022/07/04 02:02:53;;;;;;;0.80;0.40;;;13.30;99.90;;;;;;5044503;28;20083;-70
2022/07/04 02:05:22;;;;;;;0.85;0.38;;;13.40;99.90;;;;;;5045566;28;20065;-69
2022/07/04 02:07:50;;;;;;;1.25;0.60;;;13.50;99.90;;;;;;5044675;28;20028;-69
2022/07/04 02:10:17;;;;;;;0.38;0.30;;;13.50;99.90;;;;;;5043943;28;20029;-68
2022/07/04 02:13:03;;;;;;;0.57;0.30;;;13.50;99.90;;;;;;5042369;28;20032;-70
2022/07/04 02:15:38;;;;;;;2.25;0.60;;;13.60;99.90;;;;;;5043391;28;20017;-69
2022/07/04 02:18:10;;;;;;;0.85;0.50;;;13.70;99.90;;;;;;5043960;28;20383;-71
2022/07/04 02:20:38;;;;;;;0.63;0.20;;;13.70;99.90;;;;;;5044572;28;20037;-68
2022/07/04 02:23:06;;;;;;;0.50;0.45;;;13.80;99.90;;;;;;5046838;28;20633;-70
2022/07/04 02:25:33;;;;;;;1.60;0.60;;;13.80;99.90;;;;;;5047767;28;20062;-68
2022/07/04 02:28:01;;;;;;;1.98;0.43;;;13.80;99.90;;;;;;5047204;28;20028;-67
2022/07/04 02:30:28;;;;;;;4.05;0.40;;;13.80;99.90;;;;;;5046839;28;20052;-69
2022/07/04 02:32:55;;;;;;;1.98;0.43;;;13.70;99.90;;;;;;5045976;28;20029;-69
2022/07/04 02:35:23;;;;;;;0.35;0.28;;;13.80;99.90;;;;;;5046807;28;20032;-68
2022/07/04 02:37:50;;;;;;;2.08;1.00;;;13.80;99.90;;;;;;5046827;28;20036;-69
2022/07/04 02:40:17;;;;;;;2.28;1.13;;;13.80;99.90;;;;;;5046804;28;20498;-64
2022/07/04 02:42:44;;;;;;;5.50;1.38;;;13.70;99.90;;;;;;5045595;28;20032;-66
2022/07/04 02:45:12;;;;;;;2.42;1.20;;;13.70;99.90;;;;;;5044006;28;20608;-69
2022/07/04 02:47:39;;;;;;;1.80;1.02;;;13.80;99.90;;;;;;5045831;28;20032;-69
2022/07/04 02:50:06;;;;;;;4.07;1.58;;;13.80;99.90;;;;;;5042518;28;20021;-68
2022/07/04 02:52:37;;;;;;;4.07;2.50;;;13.80;99.90;;;;;;5043260;28;20486;-68
2022/07/04 02:55:04;;;;;;;5.15;3.47;;;13.80;99.90;;;;;;5046143;28;20082;-67
2022/07/04 02:57:31;;;;;;;1.88;1.20;;;13.90;99.90;;;;;;5047769;28;20186;-67
2022/07/04 02:59:59;;;;;;;1.10;0.77;;;13.80;99.90;;;;;;5047636;28;20393;-67
2022/07/04 03:02:26;;;;;;;1.50;0.70;;;13.80;99.90;;;;;;5047601;28;20025;-67
2022/07/04 03:04:53;;;;;;;1.73;0.50;;;13.80;99.90;;;;;;5045495;28;20152;-68
2022/07/04 03:07:20;;;;;;;2.03;0.65;;;13.80;99.90;;;;;;5046267;28;20017;-67
2022/07/04 03:09:48;;;;;;;0.75;0.50;;;13.90;99.90;;;;;;5041423;28;20135;-64
2022/07/04 03:12:15;;;;;;;2.15;0.60;;;14.00;99.90;;;;;;5041357;28;20074;-66
2022/07/04 03:14:42;;;;;;;3.97;0.80;;;14.00;99.90;;;;;;5048427;28;20526;-65
2022/07/04 03:17:09;;;;;;;1.02;0.50;;;14.00;99.90;;;;;;5047261;28;20513;-64
2022/07/04 03:19:36;;;;;;;0.80;0.50;;;14.00;99.90;;;;;;5044896;28;20035;-66
2022/07/04 03:22:04;;;;;;;1.90;0.60;;;14.00;99.90;;;;;;5047108;28;20025;-65
2022/07/04 03:24:31;;;;;;;2.40;1.70;;;14.10;99.90;;;;;;5045347;28;20127;-66
2022/07/04 03:26:58;;;;;;;5.28;3.58;;;14.20;99.90;;;;;;5046307;28;20704;-64
2022/07/04 03:29:25;;;;;;;6.35;3.58;;;14.30;99.90;;;;;;5046165;28;20505;-64
2022/07/04 03:31:53;;;;;;;1.45;0.50;;;14.40;99.90;;;;;;5047542;28;20032;-64
2022/07/04 03:34:20;;;;;;;3.28;0.50;;;14.40;99.90;;;;;;5045070;28;20032;-63
2022/07/04 03:36:47;;;;;;;2.75;0.40;;;14.50;99.90;;;;;;5040557;28;20050;-65
2022/07/04 03:39:15;;;;;;;2.90;1.67;;;14.60;99.90;;;;;;5039934;28;20037;-62
2022/07/04 03:41:42;;;;;;;5.15;1.45;;;14.50;99.90;;;;;;5041211;28;20033;-64
2022/07/04 03:44:09;;;;;;;5.43;1.80;;;14.50;99.90;;;;;;5049470;28;20037;-62
2022/07/04 03:46:36;;;;;;;4.75;2.03;;;14.50;99.90;;;;;;5043550;28;20029;-61
2022/07/04 03:49:03;;;;;;;5.43;2.50;;;14.60;99.90;;;;;;5045355;28;20025;-61
2022/07/04 03:51:31;;;;;;;10.63;7.55;;;14.60;99.90;;;;;;5047625;28;20040;-61
2022/07/04 03:53:58;;;;;;;11.80;7.60;;;14.60;99.90;;;;;;5041392;28;20060;-60
2022/07/04 03:56:25;;;;;;;12.40;8.90;;;14.50;99.90;;;;;;5042916;28;20152;-63
2022/07/04 03:58:52;;;;;;;5.35;3.08;;;14.50;99.90;;;;;;5042181;28;20102;-64
2022/07/04 04:01:20;;;;;;;4.35;1.70;;;14.50;99.90;;;;;;5044311;28;20070;-65
2022/07/04 04:06:33;;;;;;;1.73;0.80;;;14.50;99.90;;;;;;5050023;28;20571;-64
2022/07/04 04:09:00;;;;;;;2.58;1.10;;;14.40;99.90;;;;;;5049991;28;20037;-66
2022/07/04 04:11:28;;;;;;;1.70;0.65;;;14.40;99.90;;;;;;5042720;28;20104;-64
2022/07/04 04:13:55;;;;;;;6.45;1.25;;;14.30;99.90;;;;;;5045368;28;20024;-63
2022/07/04 04:16:22;;;;;;;4.80;1.98;;;14.30;99.90;;;;;;5044878;28;20466;-65
2022/07/04 04:18:49;;;;;;;2.28;1.30;;;14.30;99.90;;;;;;5045099;28;20055;-66
2022/07/04 04:21:16;;;;;;;2.30;0.80;;;14.30;99.90;;;;;;5045385;28;20470;-66
2022/07/04 04:23:44;;;;;;;3.45;1.02;;;14.20;99.90;;;;;;5044736;28;20116;-65
2022/07/04 04:26:12;;;;;;;1.60;0.98;;;14.20;99.90;;;;;;5046085;28;20079;-67
2022/07/04 04:28:39;;;;;;;2.70;1.00;;;14.30;99.90;;;;;;5044885;28;20021;-66
2022/07/04 04:31:06;;;;;;;2.95;1.15;;;14.20;99.90;;;;;;5041477;28;20029;-65
2022/07/04 04:33:35;;;;;;;1.90;0.50;;;14.20;99.90;;;;;;5046106;28;20029;-68
2022/07/04 04:36:03;;;;;;;2.28;0.90;;;14.10;99.90;;;;;;5043820;28;20037;-64
2022/07/04 04:38:30;;;;;;;1.10;0.50;;;14.10;99.90;;;;;;5042917;28;20032;-65
2022/07/04 04:40:57;;;;;;;2.75;2.03;;;14.00;99.90;;;;;;5037197;28;20068;-65
2022/07/04 04:43:25;;;;;;;4.07;0.57;;;14.00;99.90;;;;;;5038432;28;20021;-64
2022/07/04 04:45:52;;;;;;;2.03;0.55;;;13.90;99.90;;;;;;5042069;28;20037;-64
2022/07/04 04:48:19;;;;;;;2.17;0.90;;;13.80;99.90;;;;;;5044451;28;20036;-64
2022/07/04 04:50:46;;;;;;;6.45;1.50;;;13.80;99.90;;;;;;5042841;28;20410;-65
2022/07/04 04:53:14;;;;;;;3.80;1.13;;;13.80;99.90;;;;;;5042949;28;20108;-64
2022/07/04 04:55:41;;;;;;;1.40;0.77;;;13.80;99.90;;;;;;5043953;28;20355;-66
2022/07/04 04:58:09;;;;;;;1.48;0.60;;;13.80;99.90;;;;;;5043222;28;20025;-65
2022/07/04 05:00:36;;;;;;;1.02;0.50;;;13.70;99.90;;;;;;5046109;28;20033;-68
2022/07/04 05:03:03;;;;;;;0.77;0.32;;;13.70;99.90;;;;;;5046533;28;20032;-68
2022/07/04 05:05:30;;;;;;;1.05;0.60;;;13.70;99.90;;;;;;5046141;28;20094;-68
2022/07/04 05:07:58;;;;;;;1.67;0.50;;;13.60;99.90;;;;;;5047370;28;20128;-68
2022/07/04 05:10:25;;;;;;;0.43;0.20;;;13.70;99.90;;;;;;5046219;28;20441;-67
2022/07/04 05:12:52;;;;;;;1.10;0.50;;;13.70;99.90;;;;;;5046783;28;20473;-68
2022/07/04 05:15:19;;;;;;;1.63;0.80;;;13.60;99.90;;;;;;5047168;28;20025;-65
2022/07/04 05:17:47;;;;;;;1.05;0.50;;;13.60;99.90;;;;;;5047698;28;20041;-66
2022/07/04 05:20:14;;;;;;;0.50;0.40;;;13.60;99.90;;;;;;5048262;28;20029;-66
2022/07/04 05:22:41;;;;;;;0.63;0.50;;;13.60;99.90;;;;;;5050821;28;20056;-66
2022/07/04 05:25:09;;;;;;;1.75;0.50;;;13.60;99.90;;;;;;5048427;28;20238;-66
2022/07/04 05:27:37;;;;;;;1.13;0.17;;;13.60;99.90;;;;;;5048791;28;20028;-65
2022/07/04 05:30:05;;;;;;;1.23;0.40;;;13.60;99.90;;;;;;5048989;28;20112;-67
2022/07/04 05:32:32;;;;;;;0.63;0.30;;;13.50;99.90;;;;;;5049662;28;20474;-68
2022/07/04 05:34:59;;;;;;;0.63;0.43;;;13.50;99.90;;;;;;5047700;28;20526;-65
2022/07/04 05:37:26;;;;;;;2.42;1.13;;;13.50;99.90;;;;;;5050009;28;20070;-66
2022/07/04 05:39:54;;;;;;;1.13;0.38;;;13.40;99.90;;;;;;5047613;28;20386;-65
2022/07/04 05:42:21;;;;;;;3.38;0.70;;;13.50;99.90;;;;;;5043836;28;20056;-66
2022/07/04 05:44:48;;;;;;;2.78;0.50;;;13.50;99.90;;;;;;5041216;28;20040;-64
2022/07/04 05:47:16;;;;;;;2.67;0.50;;;13.40;99.90;;;;;;5053308;28;20028;-67
2022/07/04 05:49:43;;;;;;;1.02;0.50;;;13.40;99.90;;;;;;5054041;28;20052;-66
2022/07/04 05:52:10;;;;;;;1.83;0.40;;;13.40;99.90;;;;;;5054411;28;20208;-66
2022/07/04 05:54:38;;;;;;;1.88;0.50;;;13.40;99.90;;;;;;5052300;28;20845;-67
2022/07/04 05:57:05;;;;;;;1.17;0.47;;;13.40;99.90;;;;;;5055502;28;20028;-67
2022/07/04 05:59:32;;;;;;;0.90;0.60;;;13.40;99.90;;;;;;5058756;28;20052;-66
2022/07/04 06:02:00;;;;;;;2.00;0.55;;;13.40;99.90;;;;;;5054493;28;20029;-67
2022/07/04 06:04:27;;;;;;;3.78;1.90;;;13.40;99.90;;;;;;5054974;28;20477;-67
2022/07/04 06:06:55;;;;;;;0.77;0.55;;;13.40;99.90;;;;;;5053572;28;20027;-68
2022/07/04 06:09:22;;;;;;;4.50;0.60;;;13.40;99.90;;;;;;5053263;28;20344;-66
2022/07/04 06:11:52;;;;;;;8.27;0.70;;;13.40;99.90;;;;;;5060669;28;20029;-64
2022/07/04 06:14:20;;;;;;;2.33;0.70;;;13.40;99.90;;;;;;5049737;28;20052;-64
2022/07/04 06:16:47;;;;;;;2.72;0.95;;;13.40;99.90;;;;;;5064357;28;20045;-65
2022/07/04 06:19:14;;;;;;;2.45;0.93;;;13.40;99.90;;;;;;5058127;28;20032;-66
2022/07/04 06:21:44;;;;;;;4.40;1.23;;;13.40;99.90;;;;;;5057544;28;20053;-66
2022/07/04 06:24:11;;;;;;;3.60;2.35;;;13.40;99.90;;;;;;5065985;28;20032;-66
2022/07/04 06:26:39;;;;;;;3.08;1.73;;;13.40;99.90;;;;;;5051786;28;20497;-67
2022/07/04 06:29:09;;;;;;;4.40;2.72;;;13.40;99.90;;;;;;5063217;28;20078;-65
2022/07/04 06:31:37;;;;;;;5.80;3.05;;;13.40;99.90;;;;;;5049578;28;20017;-64
2022/07/04 06:36:49;;;;;;;3.85;2.30;;;13.40;99.90;;;;;;5051434;28;20403;-65
2022/07/04 06:39:16;;;;;;;6.35;3.83;;;13.40;99.90;;;;;;5061256;28;20021;-65
2022/07/04 06:41:43;;;;;;;9.80;5.75;;;13.40;99.90;;;;;;5061813;28;20028;-63
2022/07/04 06:44:11;;;;;;;9.80;5.20;;;13.40;99.90;;;;;;5054312;28;20029;-66
2022/07/04 06:46:38;;;;;;;9.73;6.50;;;13.40;99.90;;;;;;5064802;28;20025;-64
2022/07/04 06:49:05;;;;;;;4.03;1.75;;;13.40;99.90;;;;;;5055980;28;20022;-65
2022/07/04 06:51:32;;;;;;;0.93;0.50;;;13.40;99.90;;;;;;5059252;28;20017;-67
2022/07/04 06:54:00;;;;;;;1.65;0.70;;;13.30;99.90;;;;;;5052243;28;20036;-62
2022/07/04 06:56:27;;;;;;;3.83;0.70;;;13.30;99.90;;;;;;5050637;28;20428;-68
2022/07/04 06:58:54;;;;;;;1.42;0.77;;;13.30;99.90;;;;;;5056535;28;20033;-68
2022/07/04 07:01:22;;;;;;;1.33;0.50;;;13.20;99.90;;;;;;5058244;28;20024;-66
2022/07/04 07:03:49;;;;;;;2.55;1.63;;;13.20;99.90;;;;;;5051669;28;20087;-65
2022/07/04 07:06:16;;;;;;;2.03;0.70;;;13.20;99.90;;;;;;5065607;28;20400;-66
2022/07/04 07:08:44;;;;;;;2.90;0.98;;;13.20;99.90;;;;;;5052210;28;20024;-65
2022/07/04 07:11:14;;;;;;;5.82;0.85;;;13.10;99.90;;;;;;5062181;28;20028;-65
2022/07/04 07:13:43;;;;;;;2.67;1.00;;;13.20;99.90;;;;;;5061113;28;20025;-65
2022/07/04 07:16:12;;;;;;;4.18;1.40;;;13.20;99.90;;;;;;5053811;28;20060;-65
2022/07/04 07:18:39;;;;;;;1.85;0.70;;;13.20;99.90;;;;;;5065501;28;20037;-65
2022/07/04 07:21:06;;;;;;;4.15;0.93;;;13.20;99.90;;;;;;5055677;28;20132;-63
2022/07/04 07:23:33;;;;;;;5.25;0.93;;;13.20;99.90;;;;;;5050591;28;20528;-64
2022/07/04 07:26:00;;;;;;;9.50;2.20;;;13.10;99.90;;;;;;5041192;28;20120;-63
2022/07/04 07:28:28;;;;;;;5.00;1.45;;;13.10;99.90;;;;;;5042520;28;20357;-65
2022/07/04 07:30:55;;;;;;;2.95;0.90;;;13.00;99.90;;;;;;5042583;28;20032;-64
2022/07/04 07:33:22;;;;;;;2.13;0.55;;;12.90;99.90;;;;;;5040595;28;20009;-68
2022/07/04 07:35:49;;;;;;;4.18;0.40;;;12.80;99.90;;;;;;5040222;28;20025;-64
2022/07/04 07:38:16;;;;;;;1.13;0.55;;;12.70;99.90;;;;;;5041485;28;20466;-65
2022/07/04 07:40:44;;;;;;;3.13;0.40;;;12.70;99.90;;;;;;5041150;28;20036;-65
2022/07/04 07:43:11;;;;;;;1.63;0.43;;;12.60;99.90;;;;;;5040225;28;20021;-63
2022/07/04 07:45:38;;;;;;;0.68;0.40;;;12.60;99.90;;;;;;5038354;28;20151;-64
2022/07/04 07:48:06;;;;;;;4.80;0.60;;;12.50;99.90;;;;;;5046685;28;20167;-63
2022/07/04 07:50:33;;;;;;;2.67;0.40;;;12.50;99.90;;;;;;5063653;28;20063;-64
2022/07/04 07:53:05;;;;;;;2.92;0.50;;;12.50;99.90;;;;;;5046859;28;20017;-64
2022/07/04 07:55:32;;;;;;;0.73;0.40;;;12.50;99.90;;;;;;5043112;28;20018;-64
2022/07/04 07:58:01;;;;;;;0.60;0.30;;;12.40;99.90;;;;;;5041695;28;20439;-67
2022/07/04 08:00:28;;;;;;;1.27;0.47;;;12.40;99.90;;;;;;5041494;28;20708;-66
2022/07/04 08:05:41;;;;;;;0.60;0.40;;;12.40;99.90;;;;;;5036880;28;20036;-64
2022/07/04 08:08:10;;;;;;;1.77;0.40;;;12.30;99.90;;;;;;5028653;28;20025;-66
2022/07/04 08:10:38;;;;;;;0.80;0.52;;;12.30;99.90;;;;;;5031797;28;20033;-66
2022/07/04 08:13:06;;;;;;;2.60;0.57;;;12.30;99.90;;;;;;5045343;28;20516;-65
2022/07/04 08:15:39;;;;;;;2.60;0.70;;;12.30;99.90;;;;;;5042746;28;20040;-65
2022/07/04 08:18:07;;;;;;;3.90;0.50;;;12.30;99.90;;;;;;5041991;28;20042;-64
2022/07/04 08:20:34;;;;;;;2.67;0.60;;;12.30;99.90;;;;;;5045994;28;20368;-63
2022/07/04 08:23:01;;;;;;;1.17;0.43;;;12.20;99.90;;;;;;5048380;28;20032;-66
2022/07/04 08:25:29;;;;;;;2.50;0.80;;;12.20;99.90;;;;;;5042791;28;20075;-65
2022/07/04 08:27:59;;;;;;;3.25;0.80;;;12.20;99.90;;;;;;5041350;28;20029;-64
2022/07/04 08:30:26;;;;;;;3.35;0.70;;;12.20;99.90;;;;;;5060540;28;20029;-69
2022/07/04 08:32:54;;;;;;;2.47;0.80;;;12.20;99.90;;;;;;5039991;28;20087;-65
2022/07/04 08:35:21;;;;;;;3.63;1.10;;;12.20;99.90;;;;;;5040899;28;20099;-66
2022/07/04 08:37:53;;;;;;;1.30;0.77;;;12.10;99.90;;;;;;5046690;28;20645;-65
2022/07/04 08:40:27;;;;;;;2.45;0.90;;;12.20;99.90;;;;;;5061685;28;20037;-65
2022/07/04 08:42:55;;;;;;;7.05;1.10;;;12.20;99.90;;;;;;5051092;28;20025;-68
2022/07/04 08:45:30;;;;;;;3.05;0.85;;;12.20;99.90;;;;;;5039723;28;20041;-67
2022/07/04 08:48:06;;;;;;;1.65;0.90;;;12.10;99.90;;;;;;5037151;28;20106;-67
2022/07/04 08:50:44;;;;;;;2.03;0.80;;;12.20;99.90;;;;;;5038738;28;20057;-68
2022/07/04 08:53:14;;;;;;;2.33;0.80;;;12.10;99.90;;;;;;5047993;28;20059;-68
2022/07/04 08:58:33;;;;;;;2.35;0.88;;;12.10;99.90;;;;;;5054370;28;20078;-69
2022/07/04 09:01:01;;;;;;;2.47;0.90;;;12.10;99.90;;;;;;5048101;28;20033;-62
2022/07/04 09:03:29;;;;;;;1.42;0.80;;;12.10;99.90;;;;;;5048586;28;20491;-65
2022/07/04 09:05:57;;;;;;;8.98;1.02;;;12.10;99.90;;;;;;5042230;28;20029;-65
2022/07/04 09:08:25;;;;;;;9.43;1.77;;;12.20;99.90;;;;;;5061400;28;20090;-66
2022/07/04 09:10:54;;;;;;;1.73;0.70;;;12.10;99.90;;;;;;5042996;28;20075;-66
2022/07/04 09:13:21;;;;;;;2.95;0.60;;;12.10;99.90;;;;;;5058713;28;20021;-65
2022/07/04 09:15:50;;;;;;;2.67;0.75;;;12.20;99.90;;;;;;5047438;28;20547;-67
2022/07/04 09:18:26;;;;;;;1.30;0.70;;;12.20;99.90;;;;;;5054077;28;20045;-64
2022/07/04 09:20:59;;;;;;;5.30;1.17;;;12.20;99.90;;;;;;5048584;28;20035;-65
2022/07/04 09:23:28;;;;;;;3.50;0.60;;;12.20;99.90;;;;;;5040274;28;20036;-66
2022/07/04 09:26:16;;;;;;;4.28;1.48;;;12.20;99.90;;;;;;5049780;28;20024;-65
2022/07/04 09:28:53;;;;;;;1.95;0.80;;;12.20;99.90;;;;;;5047843;28;20036;-64
2022/07/04 09:31:25;;;;;;;3.85;0.93;;;12.30;99.90;;;;;;5052441;28;20035;-65
2022/07/04 09:33:55;;;;;;;2.17;0.70;;;12.30;99.90;;;;;;5042081;28;20033;-66
2022/07/04 09:36:25;;;;;;;1.02;0.60;;;12.30;99.90;;;;;;5051681;28;20075;-66
2022/07/04 09:39:25;;;;;;;1.60;0.60;;;12.30;99.90;;;;;;5039599;28;20072;-66
2022/07/04 09:42:01;;;;;;;2.22;0.63;;;12.30;99.90;;;;;;5027443;28;20465;-65
2022/07/04 09:44:36;;;;;;;1.85;0.63;;;12.30;99.90;;;;;;5048633;28;20136;-64
2022/07/04 09:47:30;;;;;;;1.80;0.55;;;12.30;99.90;;;;;;5042919;28;20456;-65
2022/07/04 09:50:05;;;;;;;2.33;0.57;;;12.40;99.90;;;;;;5052302;28;20702;-67
2022/07/04 09:52:53;;;;;;;1.73;1.00;;;12.30;99.90;;;;;;5040394;28;20028;-66
2022/07/04 09:55:40;;;;;;;2.83;0.98;;;12.30;99.90;;;;;;5046171;28;20998;-67
2022/07/04 09:58:17;;;;;;;2.22;1.00;;;12.40;99.90;;;;;;5043273;28;20738;-67
2022/07/04 10:00:48;;;;;;;4.75;0.90;;;12.40;99.90;;;;;;5036625;28;20037;-66
2022/07/04 10:03:29;;;;;;;2.78;1.27;;;12.40;99.90;;;;;;5044609;28;20032;-67
2022/07/04 10:06:07;;;;;;;2.78;1.50;;;12.40;99.90;;;;;;5042666;28;20041;-64
2022/07/04 10:08:38;;;;;;;2.00;0.77;;;12.40;99.90;;;;;;5045639;28;20025;-64
2022/07/04 10:11:06;;;;;;;5.10;1.00;;;12.40;99.90;;;;;;5043496;28;20029;-64
2022/07/04 10:13:34;;;;;;;4.30;2.05;;;12.40;99.90;;;;;;5055524;28;20024;-67
2022/07/04 10:16:01;;;;;;;4.25;2.63;;;12.40;99.90;;;;;;5042275;28;20032;-65
2022/07/04 10:18:29;;;;;;;5.30;3.17;;;12.40;99.90;;;;;;5046263;28;20049;-68
2022/07/04 10:20:57;;;;;;;5.28;3.47;;;12.30;99.90;;;;;;5044460;28;20036;-69
2022/07/04 10:23:30;;;;;;;7.50;3.63;;;12.40;99.90;;;;;;5052283;28;20036;-68
2022/07/04 10:25:58;;;;;;;4.80;1.80;;;12.40;99.90;;;;;;5045050;28;20037;-68
2022/07/04 10:28:26;;;;;;;2.83;1.60;;;12.40;99.90;;;;;;5040984;28;20052;-68
2022/07/04 10:30:58;;;;;;;2.22;1.30;;;12.40;99.90;;;;;;5046851;28;20505;-67
2022/07/04 10:33:27;;;;;;;3.95;1.30;;;12.40;99.90;;;;;;5052032;28;20116;-66
2022/07/04 10:36:01;;;;;;;5.60;2.90;;;12.40;99.90;;;;;;5044572;28;20029;-65
2022/07/04 10:38:30;;;;;;;8.73;4.80;;;12.40;99.90;;;;;;5045215;28;20037;-66
2022/07/04 10:41:06;;;;;;;9.13;5.45;;;12.40;99.90;;;;;;5045041;28;20039;-65
2022/07/04 10:46:06;;;;;;;8.82;3.40;;;12.40;99.90;;;;;;5043325;28;20052;-65
2022/07/04 10:48:34;;;;;;;3.42;1.67;;;12.40;99.90;;;;;;5046188;28;20115;-70
2022/07/04 10:51:05;;;;;;;2.58;0.70;;;12.40;99.90;;;;;;5039769;28;20032;-69
2022/07/04 10:53:51;;;;;;;3.65;1.00;;;12.30;99.90;;;;;;5042232;28;20017;-65
2022/07/04 10:56:21;;;;;;;1.80;0.63;;;12.40;99.90;;;;;;5044209;28;20112;-66
2022/07/04 10:58:50;;;;;;;1.05;0.60;;;12.30;99.90;;;;;;5040434;28;20032;-68
2022/07/04 11:01:21;;;;;;;1.58;0.55;;;12.30;99.90;;;;;;5040281;28;20079;-66
2022/07/04 11:03:53;;;;;;;2.75;0.57;;;12.30;99.90;;;;;;5034469;28;20049;-67
2022/07/04 11:06:36;;;;;;;2.00;0.70;;;12.30;99.90;;;;;;5059007;28;20031;-69
2022/07/04 11:09:25;;;;;;;2.03;0.60;;;12.30;99.90;;;;;;5046219;28;20393;-70
2022/07/04 11:11:57;;;;;;;2.97;0.73;;;12.30;99.90;;;;;;5037507;28;20111;-68
2022/07/04 11:14:48;;;;;;;3.80;0.80;;;12.30;99.90;;;;;;5059750;28;20057;-68
2022/07/04 11:17:37;;;;;;;3.47;0.70;;;12.30;99.90;;;;;;5046126;28;20036;-70
2022/07/04 11:20:07;;;;;;;5.85;1.08;;;12.30;99.90;;;;;;5042945;28;20025;-70
2022/07/04 11:22:34;;;;;;;3.83;0.90;;;12.30;99.90;;;;;;5044666;28;20066;-67
2022/07/04 11:25:02;;;;;;;1.52;0.90;;;12.30;99.90;;;;;;5046810;28;20048;-65
2022/07/04 11:27:30;;;;;;;2.75;1.27;;;12.30;99.90;;;;;;5056600;28;20064;-68
2022/07/04 11:29:57;;;;;;;3.90;1.00;;;12.40;99.90;;;;;;5054038;28;20143;-69
2022/07/04 11:32:32;;;;;;;3.83;0.95;;;12.30;99.90;;;;;;5042305;28;20461;-70
2022/07/04 11:35:00;;;;;;;2.90;1.40;;;12.30;99.90;;;;;;5033607;28;20056;-69
2022/07/04 11:37:27;;;;;;;4.10;1.38;;;12.40;99.90;;;;;;5037985;28;20373;-71
2022/07/04 11:45:51;;;;;;;11.05;5.88;;;12.40;99.90;;;;;;5038131;28;20405;-71
2022/07/04 11:48:26;;;;;;;15.10;9.77;;;12.40;99.90;;;;;;5034418;28;20032;-71
2022/07/04 11:50:54;;;;;;;9.38;5.85;;;12.50;99.90;;;;;;5056275;28;20028;-70
2022/07/04 11:53:21;;;;;;;7.95;4.47;;;12.50;99.90;;;;;;5057869;28;20186;-69
2022/07/04 11:56:01;;;;;;;7.50;4.03;;;12.50;99.90;;;;;;5049268;28;20029;-68
2022/07/04 11:58:44;;;;;;;5.07;3.13;;;12.50;99.90;;;;;;5051747;28;20028;-71
2022/07/04 12:01:11;;;;;;;6.32;3.65;;;12.50;99.90;;;;;;5061586;28;20029;-71
2022/07/04 12:03:38;;;;;;;8.18;5.50;;;12.50;99.90;;;;;;5048872;28;20540;-71
2022/07/04 12:06:06;;;;;;;10.60;4.95;;;12.50;99.90;;;;;;5032842;28;20040;-68
2022/07/04 12:08:33;;;;;;;12.45;7.60;;;12.50;99.90;;;;;;5037527;28;20048;-67
2022/07/04 12:11:04;;;;;;;14.00;8.32;;;12.50;99.90;;;;;;5047223;28;20039;-67
2022/07/04 12:13:31;;;;;;;10.90;6.82;;;12.50;99.90;;;;;;5048277;28;20023;-66
2022/07/04 12:15:59;;;;;;;10.90;6.38;;;12.50;99.90;;;;;;5041762;28;20039;-69
2022/07/04 12:18:31;;;;;;;7.10;2.00;;;12.50;99.90;;;;;;5049074;28;20040;-69
2022/07/04 12:21:18;;;;;;;2.17;1.52;;;12.50;99.90;;;;;;5043555;28;20368;-69
2022/07/04 12:23:57;;;;;;;1.55;0.80;;;12.50;99.90;;;;;;5037209;28;20109;-69
2022/07/04 12:26:24;;;;;;;3.83;0.73;;;12.50;99.90;;;;;;5047728;28;20033;-70
2022/07/04 12:28:51;;;;;;;2.80;1.05;;;12.50;99.90;;;;;;5057505;28;20032;-69
2022/07/04 12:31:18;;;;;;;2.22;0.75;;;12.50;99.90;;;;;;5037545;28;20064;-68
2022/07/04 12:33:56;;;;;;;2.05;0.90;;;12.50;99.90;;;;;;5038856;28;20025;-70
2022/07/04 12:36:23;;;;;;;9.77;1.05;;;12.50;99.90;;;;;;5052116;28;20477;-70
2022/07/04 12:38:50;;;;;;;4.45;1.00;;;12.50;99.90;;;;;;5044299;28;20032;-71
2022/07/04 12:41:19;;;;;;;2.33;0.75;;;12.50;99.90;;;;;;5055887;28;20024;-68
2022/07/04 12:43:48;;;;;;;6.60;2.10;;;12.50;99.90;;;;;;5068775;28;20056;-68
2022/07/04 12:46:25;;;;;;;8.63;2.90;;;12.50;99.90;;;;;;5050814;28;20025;-68
2022/07/04 12:48:54;;;;;;;3.45;1.02;;;12.50;99.90;;;;;;5052798;28;20028;-69
2022/07/04 12:51:26;;;;;;;6.53;1.40;;;12.50;99.90;;;;;;5057880;28;20385;-69
2022/07/04 12:53:56;;;;;;;7.32;1.33;;;12.50;99.90;;;;;;5044036;28;20033;-69
2022/07/04 12:56:30;;;;;;;7.10;1.70;;;12.40;99.90;;;;;;5050006;28;20032;-68
2022/07/04 12:58:58;;;;;;;3.92;2.40;;;12.50;99.90;;;;;;5040401;28;20032;-70
2022/07/04 13:01:25;;;;;;;10.57;4.60;;;12.50;99.90;;;;;;5035692;28;20025;-70
2022/07/04 13:03:52;;;;;;;9.05;4.90;;;12.50;99.90;;;;;;5037918;28;20037;-71
2022/07/04 13:06:20;;;;;;;14.70;5.90;;;12.50;99.90;;;;;;5036690;28;20090;-70
2022/07/04 13:08:47;;;;;;;12.70;5.50;;;12.50;99.90;;;;;;5048332;28;20036;-70
2022/07/04 13:13:59;;;;;;;20.27;9.25;;;12.50;99.90;;;;;;5036532;28;20528;-70
2022/07/04 13:16:27;;;;;;;21.13;9.40;;;12.50;99.90;;;;;;5039243;28;20038;-72
2022/07/04 13:18:54;;;;;;;14.00;8.13;;;12.50;99.90;;;;;;5040330;28;20032;-68
2022/07/04 13:21:21;;;;;;;15.73;8.23;;;12.50;99.90;;;;;;5029413;28;20112;-66